createdAt,value
2023-03-18T00:00:05.148Z,66
2023-03-18T00:03:30.359Z,66
2023-03-18T00:06:55.538Z,66
2023-03-18T00:10:20.697Z,66
2023-03-18T00:13:45.902Z,66
2023-03-18T00:17:11.097Z,66
2023-03-18T00:20:36.288Z,67
2023-03-18T00:24:01.487Z,67
2023-03-18T00:27:26.732Z,67
2023-03-18T00:30:52.098Z,67
2023-03-18T00:34:17.157Z,67
2023-03-18T00:37:42.351Z,67
2023-03-18T00:41:07.543Z,67
2023-03-18T00:44:32.755Z,67
2023-03-18T00:47:57.987Z,68
2023-03-18T00:51:23.159Z,68
2023-03-18T00:54:48.354Z,68
2023-03-18T00:58:13.588Z,67
2023-03-18T01:01:38.877Z,68
2023-03-18T01:05:04.025Z,67
2023-03-18T01:08:29.176Z,68
2023-03-18T01:11:54.363Z,68
2023-03-18T01:15:19.543Z,68
2023-03-18T01:18:44.730Z,68
2023-03-18T01:22:09.968Z,68
2023-03-18T01:25:35.150Z,68
2023-03-18T01:29:00.336Z,67
2023-03-18T01:32:25.533Z,68
2023-03-18T01:35:50.757Z,68
2023-03-18T01:39:15.939Z,69
2023-03-18T01:42:41.126Z,70
2023-03-18T01:46:06.363Z,71
2023-03-18T01:49:31.552Z,71
2023-03-18T01:52:56.766Z,72
2023-03-18T01:56:21.968Z,72
2023-03-18T01:59:47.168Z,71
2023-03-18T02:03:12.358Z,72
2023-03-18T02:06:29.882Z,72
2023-03-18T02:09:55.099Z,71
2023-03-18T02:13:20.303Z,71
2023-03-18T02:16:45.520Z,70
2023-03-18T02:20:10.729Z,71
2023-03-18T02:23:35.920Z,70
2023-03-18T02:27:01.118Z,70
2023-03-18T02:30:26.311Z,70
2023-03-18T02:33:51.448Z,71
2023-03-18T02:37:16.640Z,70
2023-03-18T02:40:41.850Z,70
2023-03-18T02:44:07.056Z,70
2023-03-18T02:47:32.275Z,70
2023-03-18T02:50:57.449Z,70
2023-03-18T02:54:22.626Z,71
2023-03-18T02:57:47.829Z,72
2023-03-18T03:01:13.076Z,71
2023-03-18T03:04:38.241Z,70
2023-03-18T03:08:03.426Z,69
2023-03-18T03:11:28.610Z,69
2023-03-18T03:14:53.791Z,70
2023-03-18T03:18:19.011Z,70
2023-03-18T03:21:44.243Z,71
2023-03-18T03:25:09.425Z,71
2023-03-18T03:28:34.610Z,73
2023-03-18T03:31:59.841Z,73
2023-03-18T03:35:25.027Z,73
2023-03-18T03:38:50.236Z,73
2023-03-18T03:42:15.439Z,74
2023-03-18T03:45:40.623Z,73
2023-03-18T03:49:05.810Z,72
2023-03-18T03:52:31.020Z,73
2023-03-18T03:55:58.667Z,72
2023-03-18T03:59:21.393Z,73
2023-03-18T04:02:46.636Z,72
2023-03-18T04:06:11.792Z,71
2023-03-18T04:09:36.985Z,71
2023-03-18T04:13:02.228Z,71
2023-03-18T04:16:27.436Z,70
2023-03-18T04:19:52.586Z,69
2023-03-18T04:23:17.787Z,68
2023-03-18T04:26:42.981Z,69
2023-03-18T04:30:08.241Z,68
2023-03-18T04:33:33.378Z,69
2023-03-18T04:36:58.551Z,69
2023-03-18T04:40:23.740Z,69
2023-03-18T04:43:48.952Z,69
2023-03-18T04:47:14.154Z,69
2023-03-18T04:50:39.312Z,69
2023-03-18T04:54:04.495Z,69
2023-03-18T04:57:29.689Z,70
2023-03-18T05:00:54.902Z,70
2023-03-18T05:04:20.197Z,70
2023-03-18T05:07:45.277Z,72
2023-03-18T05:11:10.480Z,71
2023-03-18T05:14:35.673Z,70
2023-03-18T05:18:00.830Z,69
2023-03-18T05:21:26.053Z,71
2023-03-18T05:24:51.185Z,71
2023-03-18T05:28:16.424Z,72
2023-03-18T05:31:41.618Z,72
2023-03-18T05:35:06.792Z,72
2023-03-18T05:38:31.985Z,72
2023-03-18T05:41:57.171Z,73
2023-03-18T05:45:22.338Z,74
2023-03-18T05:48:47.505Z,75
2023-03-18T05:52:12.740Z,74
2023-03-18T05:55:38.095Z,75
2023-03-18T05:59:03.113Z,76
2023-03-18T06:02:28.364Z,77
2023-03-18T06:05:54.021Z,75
2023-03-18T06:09:19.183Z,76
2023-03-18T06:12:44.518Z,77
2023-03-18T06:16:09.601Z,77
2023-03-18T06:19:34.766Z,77
2023-03-18T06:22:59.980Z,77
2023-03-18T06:26:25.209Z,76
2023-03-18T06:29:50.463Z,76
2023-03-18T06:33:15.619Z,76
2023-03-18T06:36:40.798Z,78
2023-03-18T06:40:06.103Z,78
2023-03-18T06:43:31.270Z,79
2023-03-18T06:46:56.513Z,78
2023-03-18T06:50:21.654Z,77
2023-03-18T06:53:46.799Z,76
2023-03-18T06:57:11.981Z,76
2023-03-18T07:00:37.213Z,75
2023-03-18T07:04:02.404Z,75
2023-03-18T07:07:27.540Z,74
2023-03-18T07:10:57.553Z,73
2023-03-18T07:14:20.525Z,72
2023-03-18T07:17:45.976Z,71
2023-03-18T07:21:11.241Z,72
2023-03-18T07:24:36.431Z,71
2023-03-18T07:28:01.678Z,72
2023-03-18T07:31:26.936Z,72
2023-03-18T07:34:52.044Z,72
2023-03-18T07:38:17.241Z,71
2023-03-18T07:41:42.406Z,71
2023-03-18T07:45:07.601Z,72
2023-03-18T07:48:32.781Z,72
2023-03-18T07:51:58.012Z,73
2023-03-18T07:55:23.451Z,73
2023-03-18T07:58:48.441Z,73
2023-03-18T08:02:13.668Z,73
2023-03-18T08:05:38.879Z,74
2023-03-18T08:09:04.061Z,72
2023-03-18T08:12:38.350Z,71
2023-03-18T08:15:54.899Z,71
2023-03-18T08:19:19.664Z,71
2023-03-18T08:22:44.877Z,71
2023-03-18T08:26:10.079Z,71
2023-03-18T08:29:35.300Z,71
2023-03-18T08:33:00.497Z,71
2023-03-18T08:36:25.638Z,70
2023-03-18T08:39:50.821Z,70
2023-03-18T08:43:16.025Z,71
2023-03-18T08:46:41.204Z,72
2023-03-18T08:50:06.404Z,71
2023-03-18T08:53:31.577Z,70
2023-03-18T08:56:56.751Z,70
2023-03-18T09:00:21.919Z,69
2023-03-18T09:03:47.206Z,71
2023-03-18T09:07:12.252Z,70
2023-03-18T09:10:37.451Z,69
2023-03-18T09:14:02.658Z,69
2023-03-18T09:17:43.960Z,68
2023-03-18T09:20:53.128Z,69
2023-03-18T09:24:18.285Z,67
2023-03-18T09:27:43.475Z,67
2023-03-18T09:31:08.685Z,69
2023-03-18T09:34:33.859Z,67
2023-03-18T09:37:59.080Z,68
2023-03-18T09:41:24.266Z,67
2023-03-18T09:44:49.503Z,68
2023-03-18T09:48:14.761Z,67
2023-03-18T09:51:39.996Z,67
2023-03-18T09:55:05.296Z,66
2023-03-18T09:58:30.462Z,67
2023-03-18T10:01:55.708Z,68
2023-03-18T10:05:20.920Z,66
2023-03-18T10:08:46.094Z,66
2023-03-18T10:12:11.375Z,67
2023-03-18T10:15:36.648Z,66
2023-03-18T10:19:01.782Z,65
2023-03-18T10:22:26.980Z,67
2023-03-18T10:25:52.178Z,67
2023-03-18T10:29:17.406Z,67
2023-03-18T10:32:49.722Z,66
2023-03-18T10:36:07.833Z,66
2023-03-18T10:39:32.988Z,66
2023-03-18T10:42:58.206Z,65
2023-03-18T10:46:23.582Z,64
2023-03-18T10:49:48.623Z,65
2023-03-18T10:53:13.880Z,64
2023-03-18T10:56:39.107Z,65
2023-03-18T11:00:04.282Z,65
2023-03-18T11:03:29.520Z,64
2023-03-18T11:06:54.681Z,65
2023-03-18T11:10:19.882Z,65
2023-03-18T11:13:45.083Z,65
2023-03-18T11:17:10.313Z,64
2023-03-18T11:20:35.760Z,63
2023-03-18T11:24:03.788Z,65
2023-03-18T11:27:29.045Z,64
2023-03-18T11:30:54.249Z,64
2023-03-18T11:34:19.437Z,64
2023-03-18T11:37:44.728Z,64
2023-03-18T11:41:09.930Z,62
2023-03-18T11:44:35.133Z,63
2023-03-18T11:48:00.361Z,64
2023-03-18T11:51:27.158Z,62
2023-03-18T11:54:50.915Z,63
2023-03-18T11:58:16.126Z,62
2023-03-18T12:01:42.954Z,62
2023-03-18T12:05:08.155Z,63
2023-03-18T12:08:33.313Z,62
2023-03-18T12:11:58.533Z,60
2023-03-18T12:15:23.736Z,62
2023-03-18T12:18:48.910Z,61
2023-03-18T12:22:14.159Z,60
2023-03-18T12:25:39.375Z,61
2023-03-18T12:29:04.589Z,60
2023-03-18T12:32:29.884Z,60
2023-03-18T12:35:54.988Z,60
2023-03-18T12:39:20.170Z,60
2023-03-18T12:42:45.410Z,60
2023-03-18T12:46:10.676Z,60
2023-03-18T12:49:35.838Z,61
2023-03-18T12:53:01.047Z,59
2023-03-18T12:56:26.263Z,57
2023-03-18T12:59:53.168Z,60
2023-03-18T13:03:16.815Z,59
2023-03-18T13:06:42.055Z,59
2023-03-18T13:10:07.289Z,60
2023-03-18T13:13:32.562Z,60
2023-03-18T13:16:57.837Z,60
2023-03-18T13:20:23.009Z,58
2023-03-18T13:23:48.195Z,60
2023-03-18T13:27:13.441Z,58
2023-03-18T13:30:38.822Z,60
2023-03-18T13:34:03.985Z,59
2023-03-18T13:37:29.260Z,59
2023-03-18T13:40:54.478Z,59
2023-03-18T13:44:20.570Z,60
2023-03-18T13:47:45.064Z,60
2023-03-18T13:51:10.286Z,58
2023-03-18T13:54:35.529Z,58
2023-03-18T13:58:00.721Z,59
2023-03-18T14:01:26.021Z,59
2023-03-18T14:04:51.263Z,59
2023-03-18T14:08:16.567Z,57
2023-03-18T14:11:43.168Z,58
2023-03-18T14:15:06.997Z,58
2023-03-18T14:18:32.396Z,57
2023-03-18T14:21:57.609Z,56
2023-03-18T14:25:22.824Z,58
2023-03-18T14:28:48.079Z,58
2023-03-18T14:32:13.295Z,58
2023-03-18T14:35:38.593Z,57
2023-03-18T14:39:03.805Z,57
2023-03-18T14:42:29.041Z,56
2023-03-18T14:45:54.275Z,58
2023-03-18T14:49:19.444Z,57
2023-03-18T14:52:44.717Z,58
2023-03-18T14:56:09.917Z,56
2023-03-18T14:59:35.155Z,58
2023-03-18T15:03:00.995Z,57
2023-03-18T15:06:25.691Z,59
2023-03-18T15:41:59.348Z,58
2023-03-18T15:45:24.586Z,59
2023-03-18T15:48:49.872Z,58
2023-03-18T15:52:15.062Z,57
2023-03-18T15:55:40.402Z,58
2023-03-18T15:59:05.761Z,59
2023-03-18T16:02:31.006Z,59
2023-03-18T16:05:56.306Z,59
2023-03-18T16:09:21.561Z,60
2023-03-18T16:12:46.855Z,59
2023-03-18T16:16:12.159Z,60
2023-03-18T16:19:37.346Z,61
2023-03-18T16:23:02.597Z,61
2023-03-18T16:26:27.858Z,62
2023-03-18T16:29:53.225Z,61
2023-03-18T16:33:18.337Z,64
2023-03-18T16:36:43.536Z,65
2023-03-18T16:40:08.919Z,66
2023-03-18T16:43:34.164Z,66
2023-03-18T16:47:00.146Z,68
2023-03-18T16:50:25.463Z,68
2023-03-18T16:53:50.750Z,69
2023-03-18T16:57:15.993Z,70
2023-03-18T17:00:41.209Z,70
2023-03-18T17:04:06.444Z,70
2023-03-18T17:07:31.637Z,70
2023-03-18T17:10:56.873Z,71
2023-03-18T17:14:22.177Z,70
2023-03-18T17:17:47.398Z,70
2023-03-18T17:21:12.616Z,70
2023-03-18T17:24:37.876Z,71
2023-03-18T17:28:03.069Z,71
2023-03-18T17:31:28.331Z,71
2023-03-18T17:34:53.456Z,71
2023-03-18T17:38:18.688Z,72
2023-03-18T17:41:43.928Z,72
2023-03-18T17:45:09.118Z,71
2023-03-18T17:48:34.344Z,71
2023-03-18T17:51:59.532Z,72
2023-03-18T17:55:24.782Z,72
2023-03-18T17:58:49.998Z,73
2023-03-18T18:02:15.216Z,74
2023-03-18T18:05:40.414Z,73
2023-03-18T18:09:05.637Z,73
2023-03-18T18:12:30.851Z,73
2023-03-18T18:15:56.170Z,73
2023-03-18T18:19:21.287Z,74
2023-03-18T18:22:46.525Z,74
2023-03-18T18:26:11.736Z,73
2023-03-18T18:29:36.960Z,74
2023-03-18T18:33:02.246Z,75
2023-03-18T18:36:27.394Z,75
2023-03-18T18:39:52.590Z,75
2023-03-18T18:43:17.814Z,76
2023-03-18T18:46:43.123Z,75
2023-03-18T18:50:08.270Z,75
2023-03-18T18:53:33.470Z,76
2023-03-18T18:56:58.716Z,76
2023-03-18T19:00:23.989Z,77
2023-03-18T19:03:49.185Z,76
2023-03-18T19:07:14.380Z,75
2023-03-18T19:10:40.320Z,76
2023-03-18T19:14:05.543Z,76
2023-03-18T19:17:30.761Z,76
2023-03-18T19:20:55.971Z,75
2023-03-18T19:24:21.185Z,77
2023-03-18T19:27:46.381Z,78
2023-03-18T19:31:11.624Z,78
2023-03-18T19:34:36.793Z,77
2023-03-18T19:38:02.003Z,78
2023-03-18T19:41:27.248Z,77
2023-03-18T19:44:52.438Z,77
2023-03-18T19:48:17.667Z,77
2023-03-18T19:51:42.840Z,78
2023-03-18T19:55:08.035Z,78
2023-03-18T19:58:33.401Z,78
2023-03-18T20:01:58.518Z,78
2023-03-18T20:05:23.750Z,78
2023-03-18T20:08:48.924Z,78
2023-03-18T20:12:14.172Z,78
2023-03-18T20:15:39.429Z,79
2023-03-18T20:19:04.630Z,79
2023-03-18T20:22:29.828Z,78
2023-03-18T20:25:55.024Z,79
2023-03-18T20:29:20.237Z,79
2023-03-18T20:32:45.480Z,78
2023-03-18T20:36:10.730Z,78
2023-03-18T20:39:35.866Z,78
2023-03-18T20:43:01.090Z,78
2023-03-18T20:46:26.290Z,78
2023-03-18T20:49:51.548Z,77
2023-03-18T20:53:16.704Z,77
2023-03-18T20:56:41.953Z,77
2023-03-18T21:00:07.171Z,77
2023-03-18T21:03:32.398Z,77
2023-03-18T21:06:57.641Z,77
2023-03-18T21:10:22.824Z,77
2023-03-18T21:13:48.007Z,76
2023-03-18T21:17:13.280Z,76
2023-03-18T21:20:38.443Z,76
2023-03-18T21:24:03.663Z,76
2023-03-18T21:27:28.875Z,76
2023-03-18T21:30:56.164Z,76
2023-03-18T21:34:19.284Z,76
2023-03-18T21:37:44.503Z,76
2023-03-18T21:41:09.743Z,76
2023-03-18T21:44:34.933Z,76
2023-03-18T21:48:00.138Z,76
2023-03-18T21:51:37.876Z,76
2023-03-18T21:54:50.620Z,75
2023-03-18T21:58:15.870Z,75
2023-03-18T22:01:41.112Z,75
2023-03-18T22:05:06.340Z,75
2023-03-18T22:08:31.546Z,75
2023-03-18T22:11:56.764Z,75
2023-03-18T22:15:22.031Z,75
2023-03-18T22:18:47.322Z,76
2023-03-18T22:22:12.458Z,76
2023-03-18T22:25:37.697Z,77
2023-03-18T22:29:02.900Z,78
2023-03-18T22:32:28.144Z,78
2023-03-18T22:35:53.366Z,79
2023-03-18T22:39:18.533Z,79
2023-03-18T22:42:43.737Z,78
2023-03-18T22:46:09.162Z,78
2023-03-18T22:49:34.206Z,77
2023-03-18T22:52:59.402Z,77
2023-03-18T22:56:24.610Z,76
2023-03-18T22:59:49.813Z,76
2023-03-18T23:03:15.138Z,76
2023-03-18T23:06:40.323Z,77
2023-03-18T23:10:05.484Z,77
2023-03-18T23:13:30.710Z,78
2023-03-18T23:16:55.940Z,77
2023-03-18T23:20:21.153Z,77
2023-03-18T23:23:46.434Z,78
2023-03-18T23:27:11.596Z,79
2023-03-18T23:30:36.848Z,78
2023-03-18T23:34:02.067Z,79
2023-03-18T23:37:27.270Z,79
2023-03-18T23:40:52.509Z,79
2023-03-18T23:44:17.667Z,79
2023-03-18T23:47:42.888Z,78
2023-03-18T23:51:08.108Z,78
2023-03-18T23:54:33.366Z,77
2023-03-18T23:57:58.618Z,77
